Time;durP1;ratioP1;P1;durP2;ratioP2;P2;SDS_P1;SDS_P2;PMS_P1;PMS_P2;Temp;Humidity;BMP_temperature;BMP_pressure;BME280_temperature;BME280_humidity;BME280_pressure;Samples;Min_cycle;Max_cycle;Signal;HPM_P1;HPM_P2
2021/08/09 00:01:39;;;;;;;;;;;;;;;-142.75;63.55;76605.72;5039713;28;20062;-82
2021/08/09 00:04:05;;;;;;;;;;;;;;;-142.75;63.47;76609.66;5044264;28;20291;-82
2021/08/09 00:06:30;;;;;;;;;;;;;;;-142.75;63.45;76605.72;5036190;28;19917;-82
2021/08/09 00:08:56;;;;;;;;;;;;;;;-142.75;63.29;76611.63;5042679;28;19983;-81
2021/08/09 00:11:21;;;;;;;;;;;;;;;-142.75;63.07;76605.72;5041971;28;19917;-83
2021/08/09 00:13:47;;;;;;;;;;;;;;;-142.75;63.17;76617.53;5034799;28;19923;-83
2021/08/09 00:16:12;;;;;;;;;;;;;;;-142.75;63.36;76617.53;5050636;28;19923;-81
2021/08/09 00:18:41;;;;;;;;;;;;;;;-142.75;63.61;76627.38;5046571;28;20019;-81
2021/08/09 00:21:07;;;;;;;;;;;;;;;-142.75;63.70;76631.31;5050939;28;19963;-80
2021/08/09 00:23:32;;;;;;;;;;;;;;;-142.75;63.70;76637.22;5040478;28;19921;-80
2021/08/09 00:25:57;;;;;;;;;;;;;;;-142.75;64.00;76637.22;5044081;28;19940;-81
2021/08/09 00:28:22;;;;;;;;;;;;;;;-142.75;64.01;76631.31;5045105;28;19960;-81
2021/08/09 00:30:47;;;;;;;;;;;;;;;-142.75;64.02;76629.34;5048720;28;19963;-81
2021/08/09 00:33:12;;;;;;;;;;;;;;;-142.75;64.07;76643.13;5045210;28;19952;-82
2021/08/09 00:35:38;;;;;;;;;;;;;;;-142.75;63.99;76637.22;5046925;28;20000;-81
2021/08/09 00:38:03;;;;;;;;;;;;;;;-142.75;64.04;76649.03;5045725;28;19967;-84
2021/08/09 00:40:28;;;;;;;;;;;;;;;-142.75;64.23;76674.63;5043526;28;19967;-81
2021/08/09 00:42:53;;;;;;;;;;;;;;;-142.75;64.32;76674.63;5045823;28;19921;-84
2021/08/09 00:45:18;;;;;;;;;;;;;;;-142.75;64.50;76666.75;5041651;28;19924;-80
2021/08/09 00:47:44;;;;;;;;;;;;;;;-142.75;64.64;76660.84;5041968;28;19929;-80
2021/08/09 00:50:09;;;;;;;;;;;;;;;-142.75;64.53;76666.75;5041866;28;19917;-78
2021/08/09 00:52:34;;;;;;;;;;;;;;;-142.75;64.50;76672.66;5043919;28;19916;-82
2021/08/09 00:55:00;;;;;;;;;;;;;;;-142.75;64.54;76678.56;5035994;28;20446;-81
2021/08/09 00:57:26;;;;;;;;;;;;;;;-142.75;65.00;76682.50;5041015;28;19932;-79
2021/08/09 00:59:51;;;;;;;;;;;;;;;-142.75;65.34;76684.47;5043122;28;20023;-79
2021/08/09 01:02:16;;;;;;;;;;;;;;;-142.75;65.40;76688.41;5048511;28;19955;-82
2021/08/09 01:04:41;;;;;;;;;;;;;;;-142.75;65.34;76684.47;5038303;28;20398;-80
2021/08/09 01:07:07;;;;;;;;;;;;;;;-142.75;65.21;76698.25;5043282;28;19960;-80
2021/08/09 01:09:43;;;;;;;;;;;;;;;-142.75;65.30;76696.28;5042333;28;20378;-83
2021/08/09 01:12:17;;;;;;;;;;;;;;;-142.75;65.35;76696.28;5038261;28;19917;-83
2021/08/09 01:14:51;;;;;;;;;;;;;;;-142.75;65.23;76700.22;5043574;28;20287;-83
2021/08/09 01:17:18;;;;;;;;;;;;;;;-142.75;65.19;76700.22;5045481;28;20294;-83
2021/08/09 01:19:48;;;;;;;;;;;;;;;-142.75;65.17;76696.28;5045310;28;19928;-82
2021/08/09 01:22:32;;;;;;;;;;;;;;;-142.75;65.36;76704.16;5046249;28;19928;-81
2021/08/09 01:25:14;;;;;;;;;;;;;;;-142.75;65.44;76704.16;5044611;28;19916;-82
2021/08/09 01:27:40;;;;;;;;;;;;;;;-142.75;65.53;76710.06;5041975;28;19917;-80
2021/08/09 01:30:07;;;;;;;;;;;;;;;-142.75;65.65;76712.03;5045743;28;20382;-82
2021/08/09 01:32:34;;;;;;;;;;;;;;;-142.75;65.86;76714.00;5048987;28;19952;-82
2021/08/09 01:35:00;;;;;;;;;;;;;;;-142.75;65.96;76723.84;5037361;28;19917;-81
2021/08/09 01:37:27;;;;;;;;;;;;;;;-142.75;65.88;76721.88;5043443;28;19917;-81
2021/08/09 01:39:52;;;;;;;;;;;;;;;-142.75;65.74;76719.91;5044853;28;20383;-80
2021/08/09 01:42:18;;;;;;;;;;;;;;;-142.75;65.83;76725.81;5046962;28;19931;-81
2021/08/09 01:44:43;;;;;;;;;;;;;;;-142.75;65.75;76727.78;5045947;28;19921;-81
2021/08/09 01:47:09;;;;;;;;;;;;;;;-142.75;65.71;76719.91;5046366;28;20003;-82
2021/08/09 01:49:34;;;;;;;;;;;;;;;-142.75;65.31;76723.84;5038654;28;20386;-82
2021/08/09 01:52:04;;;;;;;;;;;;;;;-142.75;65.12;76715.97;5047534;28;19964;-81
2021/08/09 01:54:30;;;;;;;;;;;;;;;-142.75;65.19;76712.03;5040281;28;19917;-84
2021/08/09 01:56:55;;;;;;;;;;;;;;;-142.75;65.31;76712.03;5046140;28;19917;-80
2021/08/09 01:59:23;;;;;;;;;;;;;;;-142.75;65.37;76723.84;5041399;28;20079;-83
2021/08/09 02:01:49;;;;;;;;;;;;;;;-142.75;65.50;76727.78;5043210;28;19957;-82
2021/08/09 02:04:14;;;;;;;;;;;;;;;-142.75;65.43;76727.78;5044674;28;20016;-81
2021/08/09 02:06:39;;;;;;;;;;;;;;;-142.75;65.65;76727.78;5038413;28;19932;-81
2021/08/09 02:09:06;;;;;;;;;;;;;;;-142.75;65.46;76700.22;5046909;28;19921;-82
2021/08/09 02:11:44;;;;;;;;;;;;;;;-142.75;65.38;76700.22;5050406;28;19924;-82
2021/08/09 02:14:11;;;;;;;;;;;;;;;-142.75;65.17;76706.13;5042850;28;20341;-80
2021/08/09 02:16:36;;;;;;;;;;;;;;;-142.75;65.12;76710.06;5046399;28;19917;-81
2021/08/09 02:19:08;;;;;;;;;;;;;;;-142.75;65.05;76698.25;5049120;28;19982;-82
2021/08/09 02:21:40;;;;;;;;;;;;;;;-142.75;64.94;76706.13;5043354;28;19924;-81
2021/08/09 02:24:08;;;;;;;;;;;;;;;-142.75;64.89;76700.22;5046600;28;20383;-83
2021/08/09 02:26:41;;;;;;;;;;;;;;;-142.75;64.94;76719.91;5042727;28;19917;-83
2021/08/09 02:29:10;;;;;;;;;;;;;;;-142.75;65.18;76715.97;5041921;28;19963;-81
2021/08/09 02:31:36;;;;;;;;;;;;;;;-142.75;65.41;76721.88;5042148;28;19962;-80
2021/08/09 02:34:02;;;;;;;;;;;;;;;-142.75;65.48;76719.91;5047047;28;20007;-80
2021/08/09 02:36:28;;;;;;;;;;;;;;;-142.75;65.52;76715.97;5048384;28;20014;-83
2021/08/09 02:38:53;;;;;;;;;;;;;;;-142.75;65.61;76714.00;5042623;28;20386;-81
2021/08/09 02:41:19;;;;;;;;;;;;;;;-142.75;65.71;76712.03;5046627;28;19990;-80
2021/08/09 02:43:44;;;;;;;;;;;;;;;-142.75;65.66;76719.91;5037464;28;20294;-81
2021/08/09 02:46:10;;;;;;;;;;;;;;;-142.75;65.64;76715.97;5046693;28;19999;-81
2021/08/09 02:48:36;;;;;;;;;;;;;;;-142.75;65.70;76708.09;5048919;28;19916;-81
2021/08/09 02:51:02;;;;;;;;;;;;;;;-142.75;65.50;76694.31;5044538;28;19917;-82
2021/08/09 02:53:28;;;;;;;;;;;;;;;-142.75;65.51;76704.16;5044572;28;19924;-81
2021/08/09 02:55:57;;;;;;;;;;;;;;;-142.75;65.60;76712.03;5047448;28;19969;-82
2021/08/09 02:58:22;;;;;;;;;;;;;;;-142.75;65.74;76715.97;5039543;28;19917;-81
2021/08/09 03:00:48;;;;;;;;;;;;;;;-142.75;65.90;76715.97;5040261;28;19986;-81
2021/08/09 03:03:18;;;;;;;;;;;;;;;-142.75;65.89;76712.03;5048988;28;19921;-82
2021/08/09 03:05:43;;;;;;;;;;;;;;;-142.75;65.82;76714.00;5039255;28;20526;-82
2021/08/09 03:08:12;;;;;;;;;;;;;;;-142.75;65.93;76708.09;5035454;28;19917;-80
2021/08/09 03:10:37;;;;;;;;;;;;;;;-142.75;66.08;76704.16;5050040;28;19917;-81
2021/08/09 03:13:07;;;;;;;;;;;;;;;-142.75;66.24;76717.94;5035928;28;19982;-83
2021/08/09 03:15:33;;;;;;;;;;;;;;;-142.75;66.48;76727.78;5036024;28;19921;-81
2021/08/09 03:17:58;;;;;;;;;;;;;;;-142.75;66.62;76727.78;5038406;28;20012;-83
2021/08/09 03:20:23;;;;;;;;;;;;;;;-142.75;66.82;76717.94;5049864;28;19947;-82
2021/08/09 03:22:48;;;;;;;;;;;;;;;-142.75;66.69;76717.94;5048587;28;19924;-82
2021/08/09 03:25:13;;;;;;;;;;;;;;;-142.75;66.92;76725.81;5041706;28;20294;-82
2021/08/09 03:27:39;;;;;;;;;;;;;;;-142.75;67.12;76731.72;5044575;28;19975;-82
2021/08/09 03:30:04;;;;;;;;;;;;;;;-142.75;67.10;76737.63;5046297;28;20295;-83
2021/08/09 03:32:29;;;;;;;;;;;;;;;-142.75;67.18;76733.69;5044448;28;19917;-83
2021/08/09 03:34:55;;;;;;;;;;;;;;;-142.75;67.22;76743.53;5050272;28;19917;-83
2021/08/09 03:37:20;;;;;;;;;;;;;;;-142.75;67.30;76741.56;5041855;28;19932;-82
2021/08/09 03:39:45;;;;;;;;;;;;;;;-142.75;67.32;76753.38;5043210;28;20333;-80
2021/08/09 03:42:10;;;;;;;;;;;;;;;-142.75;67.28;76755.34;5048418;28;19921;-82
2021/08/09 03:44:37;;;;;;;;;;;;;;;-142.75;67.36;76747.47;5039452;28;22315;-81
2021/08/09 03:47:02;;;;;;;;;;;;;;;-142.75;67.31;76747.47;5049736;28;20020;-81
2021/08/09 03:49:28;;;;;;;;;;;;;;;-142.75;67.29;76739.59;5045407;28;19932;-84
2021/08/09 03:51:53;;;;;;;;;;;;;;;-142.75;67.47;76751.41;5047589;28;19928;-81
2021/08/09 03:54:18;;;;;;;;;;;;;;;-142.75;67.71;76733.69;5048262;28;19917;-82
2021/08/09 03:56:43;;;;;;;;;;;;;;;-142.75;67.16;76712.03;5040296;28;19964;-80
2021/08/09 03:59:08;;;;;;;;;;;;;;;-142.75;67.19;76731.72;5042711;28;19925;-84
2021/08/09 04:01:38;;;;;;;;;;;;;;;-142.75;67.16;76731.72;5047100;28;20468;-80
2021/08/09 04:04:04;;;;;;;;;;;;;;;-142.75;67.29;76721.88;5049965;28;19928;-83
2021/08/09 04:06:29;;;;;;;;;;;;;;;-142.75;66.96;76717.94;5046954;28;19956;-83
2021/08/09 04:08:54;;;;;;;;;;;;;;;-142.75;66.79;76715.97;5045003;28;20326;-81
2021/08/09 04:11:20;;;;;;;;;;;;;;;-142.75;66.86;76719.91;5046051;28;19925;-83
2021/08/09 04:13:45;;;;;;;;;;;;;;;-142.75;66.81;76727.78;5048071;28;19917;-82
2021/08/09 04:16:10;;;;;;;;;;;;;;;-142.75;66.80;76719.91;5043134;28;19917;-82
2021/08/09 04:18:36;;;;;;;;;;;;;;;-142.75;66.55;76715.97;5043403;28;19924;-83
2021/08/09 04:21:01;;;;;;;;;;;;;;;-142.75;66.43;76717.94;5042856;28;19935;-83
2021/08/09 04:23:27;;;;;;;;;;;;;;;-142.75;66.37;76727.78;5045069;28;19917;-80
2021/08/09 04:25:53;;;;;;;;;;;;;;;-142.75;66.43;76723.84;5049028;28;19917;-82
2021/08/09 04:28:18;;;;;;;;;;;;;;;-142.75;66.45;76731.72;5050882;28;19917;-82
2021/08/09 04:30:43;;;;;;;;;;;;;;;-142.75;66.42;76733.69;5045124;28;19920;-81
2021/08/09 04:33:08;;;;;;;;;;;;;;;-142.75;66.58;76731.72;5047305;28;19964;-81
2021/08/09 04:35:33;;;;;;;;;;;;;;;-142.75;66.59;76731.72;5047099;28;19921;-81
2021/08/09 04:37:59;;;;;;;;;;;;;;;-142.75;66.79;76731.72;5040462;28;19917;-81
2021/08/09 04:40:24;;;;;;;;;;;;;;;-142.75;66.87;76733.69;5039255;28;19975;-83
2021/08/09 04:42:49;;;;;;;;;;;;;;;-142.75;66.63;76727.78;5047677;28;19970;-82
2021/08/09 04:45:14;;;;;;;;;;;;;;;-142.75;66.88;76731.72;5040788;28;20012;-80
2021/08/09 04:47:39;;;;;;;;;;;;;;;-142.75;66.60;76692.34;5046318;28;19920;-82
2021/08/09 04:50:05;;;;;;;;;;;;;;;-142.75;66.05;76670.69;5038202;28;19931;-84
2021/08/09 04:52:30;;;;;;;;;;;;;;;-142.75;65.93;76692.34;5038833;28;19987;-83
2021/08/09 04:54:55;;;;;;;;;;;;;;;-142.75;66.30;76696.28;5047067;28;19917;-82
2021/08/09 04:57:20;;;;;;;;;;;;;;;-142.75;66.41;76714.00;5045552;28;19917;-81
2021/08/09 04:59:45;;;;;;;;;;;;;;;-142.75;67.14;76733.69;5044114;28;19929;-80
2021/08/09 05:02:11;;;;;;;;;;;;;;;-142.75;67.35;76717.94;5042067;28;20544;-80
2021/08/09 05:04:36;;;;;;;;;;;;;;;-142.75;67.43;76723.84;5041145;28;19925;-80
2021/08/09 05:07:02;;;;;;;;;;;;;;;-142.75;66.47;76668.72;5047049;28;20521;-80
2021/08/09 05:09:27;;;;;;;;;;;;;;;-142.75;65.87;76645.09;5044160;28;19925;-82
2021/08/09 05:11:52;;;;;;;;;;;;;;;-142.75;65.48;76649.03;5044052;28;20396;-81
2021/08/09 05:14:17;;;;;;;;;;;;;;;-142.75;65.15;76658.88;5047684;28;19916;-81
2021/08/09 05:16:43;;;;;;;;;;;;;;;-142.75;65.24;76645.09;5046468;28;19927;-81
2021/08/09 05:19:09;;;;;;;;;;;;;;;-142.75;65.43;76662.81;5043795;28;19929;-82
2021/08/09 05:21:34;;;;;;;;;;;;;;;-142.75;65.23;76641.16;5047261;28;19928;-82
2021/08/09 05:24:04;;;;;;;;;;;;;;;-142.75;65.15;76645.09;5047248;28;19963;-79
2021/08/09 05:26:30;;;;;;;;;;;;;;;-142.75;65.20;76637.22;5041795;28;19917;-83
2021/08/09 05:28:55;;;;;;;;;;;;;;;-142.75;65.12;76629.34;5076172;22;19943;-78
2021/08/09 05:31:20;;;;;;;;;;;;;;;-142.75;64.76;76629.34;5084477;28;19927;-77
2021/08/09 05:33:46;;;;;;;;;;;;;;;-142.75;64.77;76615.56;5091932;28;19916;-79
2021/08/09 05:36:11;;;;;;;;;;;;;;;-142.75;64.41;76605.72;5090781;28;19916;-78
2021/08/09 05:38:36;;;;;;;;;;;;;;;-142.75;63.85;76576.19;5074328;28;19920;-78
2021/08/09 05:41:02;;;;;;;;;;;;;;;-142.75;63.24;76554.53;5053754;28;20432;-78
2021/08/09 05:43:27;;;;;;;;;;;;;;;-142.75;62.76;76544.69;5054772;28;20421;-78
2021/08/09 05:45:52;;;;;;;;;;;;;;;-142.75;62.08;76521.09;5068145;28;19917;-78
2021/08/09 05:48:18;;;;;;;;;;;;;;;-142.75;61.21;76491.56;5058443;28;20302;-78
2021/08/09 05:50:43;;;;;;;;;;;;;;;-142.75;61.07;76467.94;5057675;28;19919;-77
2021/08/09 05:53:08;;;;;;;;;;;;;;;-142.75;59.97;76426.59;5061921;28;19916;-77
2021/08/09 05:55:34;;;;;;;;;;;;;;;-142.75;59.15;76412.81;5061664;28;19917;-78
2021/08/09 05:57:59;;;;;;;;;;;;;;;-142.75;58.49;76397.06;5055646;28;19924;-78
2021/08/09 06:00:24;;;;;;;;;;;;;;;-142.75;57.82;76426.59;5060201;28;20333;-78
2021/08/09 06:02:50;;;;;;;;;;;;;;;-142.75;58.38;76444.31;5066665;28;20008;-78
2021/08/09 06:05:16;;;;;;;;;;;;;;;-142.75;58.46;76436.44;5057219;28;20406;-79
2021/08/09 06:07:41;;;;;;;;;;;;;;;-142.75;59.15;76444.31;5056522;28;19931;-78
2021/08/09 06:10:07;;;;;;;;;;;;;;;-142.75;58.98;76379.34;5059915;28;19917;-79
2021/08/09 06:12:33;;;;;;;;;;;;;;;-142.75;58.29;76375.41;5052857;28;19924;-78
2021/08/09 06:14:59;;;;;;;;;;;;;;;-142.75;57.24;76355.72;5063363;28;19982;-78
2021/08/09 06:17:24;;;;;;;;;;;;;;;-142.75;56.63;76290.78;5059226;28;19995;-79
2021/08/09 06:19:49;;;;;;;;;;;;;;;-142.75;55.88;76280.94;5056526;28;20335;-76
2021/08/09 06:22:14;;;;;;;;;;;;;;;-142.75;55.82;76251.41;5057408;28;19921;-78
2021/08/09 06:24:39;;;;;;;;;;;;;;;-142.75;54.35;76245.50;5072452;28;19952;-77
2021/08/09 06:27:05;;;;;;;;;;;;;;;-142.75;55.02;76251.41;5067011;28;19920;-78
2021/08/09 06:29:30;;;;;;;;;;;;;;;-142.75;54.40;76212.03;5058493;28;20452;-79
2021/08/09 06:31:55;;;;;;;;;;;;;;;-142.75;53.19;76158.91;5059583;28;20479;-78
2021/08/09 06:34:21;;;;;;;;;;;;;;;-142.75;52.89;76109.69;5055451;28;19924;-79
2021/08/09 06:36:46;;;;;;;;;;;;;;;-142.75;52.47;76058.53;5054682;28;19947;-79
2021/08/09 06:39:14;;;;;;;;;;;;;;;-142.75;50.29;76038.84;5065220;28;20473;-80
2021/08/09 06:41:39;;;;;;;;;;;;;;;-142.75;50.58;76066.41;5061200;28;19923;-78
2021/08/09 06:44:04;;;;;;;;;;;;;;;-142.75;50.13;76078.19;5069423;28;20051;-78
2021/08/09 06:46:29;;;;;;;;;;;;;;;-142.75;51.33;76135.28;5058215;28;19939;-79
2021/08/09 06:48:55;;;;;;;;;;;;;;;-142.75;51.30;76141.19;5058258;28;20405;-78
2021/08/09 06:51:20;;;;;;;;;;;;;;;-142.75;52.25;76052.63;5070549;28;19917;-79
2021/08/09 06:53:46;;;;;;;;;;;;;;;-142.75;50.71;75940.44;5069094;28;19920;-79
2021/08/09 06:56:15;;;;;;;;;;;;;;;-142.75;48.29;75889.25;5069414;28;19952;-79
2021/08/09 06:58:40;;;;;;;;;;;;;;;-142.75;48.03;76054.59;5070525;28;20011;-79
2021/08/09 07:01:06;;;;;;;;;;;;;;;-142.75;49.34;76023.09;5070732;28;20009;-79
2021/08/09 07:03:31;;;;;;;;;;;;;;;-142.75;50.53;76064.44;5070742;28;19916;-79
2021/08/09 07:05:56;;;;;;;;;;;;;;;-142.75;50.74;76107.72;5069292;28;19931;-78
2021/08/09 07:08:21;;;;;;;;;;;;;;;-142.75;51.15;76125.44;5063814;28;19921;-78
2021/08/09 07:10:47;;;;;;;;;;;;;;;-142.75;51.58;76208.09;5063647;28;20055;-79
2021/08/09 07:13:12;;;;;;;;;;;;;;;-142.75;52.59;76251.41;5067737;28;19923;-78
2021/08/09 07:15:37;;;;;;;;;;;;;;;-142.75;53.06;76255.34;5069386;28;19939;-78
2021/08/09 07:18:03;;;;;;;;;;;;;;;-142.75;53.81;76259.28;5070554;28;19916;-79
2021/08/09 07:20:28;;;;;;;;;;;;;;;-142.75;54.01;76322.28;5050564;28;19928;-78
2021/08/09 07:22:53;;;;;;;;;;;;;;;-142.75;54.38;76298.66;5070230;28;19924;-77
2021/08/09 07:25:19;;;;;;;;;;;;;;;-142.75;54.54;76340.00;5058990;28;19927;-80
2021/08/09 07:27:44;;;;;;;;;;;;;;;-142.75;54.66;76286.84;5064449;28;19917;-79
2021/08/09 07:30:11;;;;;;;;;;;;;;;-142.75;54.05;76267.16;5069654;28;19921;-77
2021/08/09 07:32:36;;;;;;;;;;;;;;;-142.75;54.09;76261.25;5068325;28;19916;-78
2021/08/09 07:35:02;;;;;;;;;;;;;;;-142.75;54.21;76338.03;5053169;28;19933;-79
2021/08/09 07:37:27;;;;;;;;;;;;;;;-142.75;54.28;76302.59;5060248;28;19917;-79
2021/08/09 07:39:52;;;;;;;;;;;;;;;-142.75;54.87;76340.00;5055858;28;19920;-78
2021/08/09 07:42:17;;;;;;;;;;;;;;;-142.75;55.10;76357.69;5054760;28;21174;-78
2021/08/09 07:44:43;;;;;;;;;;;;;;;-142.75;55.50;76340.00;5051909;28;20302;-77
2021/08/09 07:47:08;;;;;;;;;;;;;;;-142.75;55.85;76310.47;5061987;28;19924;-79
2021/08/09 07:49:33;;;;;;;;;;;;;;;-142.75;54.73;76284.88;5058570;28;19917;-78
2021/08/09 07:51:58;;;;;;;;;;;;;;;-142.75;54.86;76243.53;5060312;28;19921;-79
2021/08/09 07:54:25;;;;;;;;;;;;;;;-142.75;54.14;76239.59;5060101;28;19921;-79
2021/08/09 07:56:50;;;;;;;;;;;;;;;-142.75;54.07;76206.13;5058093;28;19924;-79
2021/08/09 07:59:16;;;;;;;;;;;;;;;-142.75;53.59;76188.44;5050673;28;19920;-78
2021/08/09 08:01:41;;;;;;;;;;;;;;;-142.75;54.39;76241.56;5059033;28;19921;-79
2021/08/09 08:04:06;;;;;;;;;;;;;;;-142.75;53.85;76255.34;5051956;28;19920;-80
2021/08/09 08:06:32;;;;;;;;;;;;;;;-142.75;54.79;76210.06;5058044;28;19917;-79
2021/08/09 08:08:58;;;;;;;;;;;;;;;-142.75;53.57;76182.53;5061574;28;19917;-79
2021/08/09 08:11:23;;;;;;;;;;;;;;;-142.75;54.06;76176.63;5060963;28;20393;-80
2021/08/09 08:13:48;;;;;;;;;;;;;;;-142.75;53.02;76111.66;5061791;28;19947;-79
2021/08/09 08:16:13;;;;;;;;;;;;;;;-142.75;52.04;76093.94;5060551;28;19961;-79
2021/08/09 08:18:39;;;;;;;;;;;;;;;-142.75;51.45;76080.16;5055790;28;19952;-80
2021/08/09 08:21:04;;;;;;;;;;;;;;;-142.75;51.32;76103.78;5058755;28;20061;-79
2021/08/09 08:23:29;;;;;;;;;;;;;;;-142.75;51.74;76109.69;5062050;28;19948;-82
2021/08/09 08:25:54;;;;;;;;;;;;;;;-142.75;52.45;76172.69;5056211;28;19925;-80
2021/08/09 08:28:19;;;;;;;;;;;;;;;-142.75;53.42;76164.81;5064236;28;19916;-78
2021/08/09 08:30:45;;;;;;;;;;;;;;;-142.75;53.22;76129.38;5053715;28;19935;-79
2021/08/09 08:33:10;;;;;;;;;;;;;;;-142.75;52.13;76113.63;5065423;28;19924;-79
2021/08/09 08:35:35;;;;;;;;;;;;;;;-142.75;51.02;76154.97;5059127;28;19970;-79
2021/08/09 08:38:01;;;;;;;;;;;;;;;-142.75;51.38;76149.06;5071061;28;19924;-79
2021/08/09 08:40:26;;;;;;;;;;;;;;;-142.75;51.53;76180.56;5066477;28;19925;-78
2021/08/09 08:42:53;;;;;;;;;;;;;;;-142.75;52.21;76170.72;5062559;28;19916;-78
2021/08/09 08:45:22;;;;;;;;;;;;;;;-142.75;53.25;76239.59;5067689;28;19922;-80
2021/08/09 08:47:48;;;;;;;;;;;;;;;-142.75;54.19;76255.34;5062094;28;20318;-79
2021/08/09 08:50:15;;;;;;;;;;;;;;;-142.75;54.04;76215.97;5065786;28;20016;-78
2021/08/09 08:52:45;;;;;;;;;;;;;;;-142.75;53.47;76196.31;5064337;28;20386;-80
2021/08/09 08:55:10;;;;;;;;;;;;;;;-142.75;53.32;76178.59;5066616;28;19971;-80
2021/08/09 08:57:35;;;;;;;;;;;;;;;-142.75;52.21;76172.69;5061291;28;20336;-79
2021/08/09 09:00:00;;;;;;;;;;;;;;;-142.75;52.39;76194.34;5062505;28;19920;-78
2021/08/09 09:02:44;;;;;;;;;;;;;;;-142.75;52.44;76200.25;5064196;28;19982;-79
2021/08/09 09:05:09;;;;;;;;;;;;;;;-142.75;52.49;76194.34;5057894;28;19920;-79
2021/08/09 09:07:35;;;;;;;;;;;;;;;-142.75;52.41;76192.38;5064316;28;20480;-79
2021/08/09 09:10:18;;;;;;;;;;;;;;;-142.75;53.11;76176.63;5059196;28;20011;-79
2021/08/09 09:12:51;;;;;;;;;;;;;;;-142.75;52.70;76166.78;5061168;28;19920;-79
2021/08/09 09:15:19;;;;;;;;;;;;;;;-142.75;53.27;76141.19;5067172;28;20378;-80
2021/08/09 09:17:45;;;;;;;;;;;;;;;-142.75;52.76;76162.84;5058424;28;19916;-78
2021/08/09 09:20:30;;;;;;;;;;;;;;;-142.75;51.37;76176.63;5063802;28;19994;-78
2021/08/09 09:23:12;;;;;;;;;;;;;;;-142.75;51.84;76156.94;5059950;28;19920;-78
2021/08/09 09:25:38;;;;;;;;;;;;;;;-142.75;52.54;76125.44;5065295;28;20043;-78
2021/08/09 09:28:21;;;;;;;;;;;;;;;-142.75;51.97;76097.88;5067076;28;20390;-79
2021/08/09 09:30:47;;;;;;;;;;;;;;;-142.75;51.84;76095.91;5060813;28;19924;-79
2021/08/09 09:33:12;;;;;;;;;;;;;;;-142.75;51.29;75928.63;5059841;28;19917;-80
2021/08/09 09:35:38;;;;;;;;;;;;;;;-142.75;48.41;75727.88;5056511;28;20007;-79
2021/08/09 09:38:03;;;;;;;;;;;;;;;-142.75;45.65;75784.94;5055379;28;19917;-78
2021/08/09 09:40:37;;;;;;;;;;;;;;;-142.75;46.55;75747.56;5062113;28;19921;-79
2021/08/09 09:43:12;;;;;;;;;;;;;;;-142.75;46.56;75802.66;5071472;28;19946;-80
2021/08/09 09:45:47;;;;;;;;;;;;;;;-142.75;46.78;75863.66;5062953;28;19917;-80
2021/08/09 09:48:13;;;;;;;;;;;;;;;-142.75;47.55;75979.78;5063402;28;20304;-79
2021/08/09 09:50:41;;;;;;;;;;;;;;;-142.75;48.82;76015.22;5056761;28;20430;-79
2021/08/09 09:53:16;;;;;;;;;;;;;;;-142.75;50.32;76030.97;5059753;28;19917;-79
2021/08/09 09:55:42;;;;;;;;;;;;;;;-142.75;50.39;76030.97;5068374;28;20002;-80
2021/08/09 09:58:07;;;;;;;;;;;;;;;-142.75;50.73;76068.38;5065370;28;19916;-78
2021/08/09 10:00:33;;;;;;;;;;;;;;;-142.75;51.77;76174.66;5064246;28;19928;-78
2021/08/09 10:02:58;;;;;;;;;;;;;;;-142.75;52.89;76184.50;5062527;28;20516;-78
2021/08/09 10:05:24;;;;;;;;;;;;;;;-142.75;52.79;76184.50;5061408;28;20019;-81
2021/08/09 10:07:49;;;;;;;;;;;;;;;-142.75;53.24;76166.78;5059758;28;19984;-81
2021/08/09 10:10:15;;;;;;;;;;;;;;;-142.75;52.78;76141.19;5057284;28;19961;-79
2021/08/09 10:12:41;;;;;;;;;;;;;;;-142.75;53.15;76117.56;5059791;28;19982;-80
2021/08/09 10:15:07;;;;;;;;;;;;;;;-142.75;52.37;76099.84;5057980;28;19939;-80
2021/08/09 10:17:33;;;;;;;;;;;;;;;-142.75;51.83;76076.22;5055304;28;19923;-80
2021/08/09 10:20:00;;;;;;;;;;;;;;;-142.75;51.96;76062.47;5057402;28;20332;-80
2021/08/09 10:22:25;;;;;;;;;;;;;;;-142.75;51.52;76068.38;5057742;28;19949;-80
2021/08/09 10:24:53;;;;;;;;;;;;;;;-142.75;50.45;76121.50;5056217;28;19966;-78
2021/08/09 10:27:38;;;;;;;;;;;;;;;-142.75;50.86;76113.63;5063703;28;19921;-79
2021/08/09 10:30:04;;;;;;;;;;;;;;;-142.75;51.34;76105.75;5067074;28;20003;-79
2021/08/09 10:32:41;;;;;;;;;;;;;;;-142.75;52.06;76101.81;5063769;28;20287;-79
2021/08/09 10:35:26;;;;;;;;;;;;;;;-142.75;51.64;76052.63;5056268;28;19924;-79
2021/08/09 10:38:30;;;;;;;;;;;;;;;-142.75;50.15;76040.81;5056728;28;19927;-78
2021/08/09 10:41:01;;;;;;;;;;;;;;;-142.75;49.57;76015.22;4992845;28;20029;-78
2021/08/09 10:43:26;;;;;;;;;;;;;;;-142.75;48.34;75989.63;4980931;28;19952;-78
2021/08/09 10:45:52;;;;;;;;;;;;;;;-142.75;48.60;76050.66;5023030;28;19920;-78
2021/08/09 10:48:36;;;;;;;;;;;;;;;-142.75;49.58;76050.66;5054263;28;20382;-78
2021/08/09 10:51:01;;;;;;;;;;;;;;;-142.75;50.01;76021.13;5059560;28;19916;-77
2021/08/09 10:53:27;;;;;;;;;;;;;;;-142.75;49.37;76007.34;5061016;28;19917;-78
2021/08/09 10:55:53;;;;;;;;;;;;;;;-142.75;49.66;75999.47;5061340;28;19962;-79
2021/08/09 10:58:37;;;;;;;;;;;;;;;-142.75;49.32;75960.13;5066456;28;19930;-78
2021/08/09 11:01:03;;;;;;;;;;;;;;;-142.75;48.93;75960.13;5061649;28;19989;-79
2021/08/09 11:03:28;;;;;;;;;;;;;;;-142.75;48.42;75912.88;5059759;28;19963;-78
2021/08/09 11:05:53;;;;;;;;;;;;;;;-142.75;48.51;75834.16;5057946;28;20401;-78
2021/08/09 11:08:18;;;;;;;;;;;;;;;-142.75;47.71;75857.78;5063941;28;19924;-79
2021/08/09 11:10:59;;;;;;;;;;;;;;;-142.75;46.79;75895.16;5055161;28;19944;-79
2021/08/09 11:13:25;;;;;;;;;;;;;;;-142.75;47.48;75936.50;5063170;28;20378;-79
2021/08/09 11:15:54;;;;;;;;;;;;;;;-142.75;48.63;76001.44;5059060;28;19974;-78
2021/08/09 11:18:19;;;;;;;;;;;;;;;-142.75;49.72;76080.16;5058123;28;20298;-79
2021/08/09 11:20:44;;;;;;;;;;;;;;;-142.75;50.67;76058.53;5064035;28;19921;-78
2021/08/09 11:23:11;;;;;;;;;;;;;;;-142.75;50.95;76011.28;5061367;28;19920;-79
2021/08/09 11:25:36;;;;;;;;;;;;;;;-142.75;48.90;75987.66;5062356;28;19925;-79
2021/08/09 11:28:11;;;;;;;;;;;;;;;-142.75;48.55;75962.09;5055366;28;20383;-79
2021/08/09 11:30:37;;;;;;;;;;;;;;;-142.75;48.07;75912.88;5091593;22;19932;-78
2021/08/09 11:33:02;;;;;;;;;;;;;;;-142.75;47.45;75826.28;5073447;28;19924;-78
2021/08/09 11:35:28;;;;;;;;;;;;;;;-142.75;46.51;75798.72;5081929;28;20378;-78
2021/08/09 11:37:57;;;;;;;;;;;;;;;-142.75;46.10;75753.47;5091354;28;20285;-78
2021/08/09 11:40:35;;;;;;;;;;;;;;;-142.75;46.49;75621.59;5061243;28;20033;-79
2021/08/09 11:43:01;;;;;;;;;;;;;;;-142.75;44.57;75550.75;5059088;28;19948;-78
2021/08/09 11:45:26;;;;;;;;;;;;;;;-142.75;42.83;75625.53;5072570;28;20279;-78
2021/08/09 11:47:51;;;;;;;;;;;;;;;-142.75;44.32;75710.16;5061931;28;19939;-78
2021/08/09 11:50:17;;;;;;;;;;;;;;;-142.75;43.93;75716.06;5069088;28;19917;-78
2021/08/09 11:52:42;;;;;;;;;;;;;;;-142.75;45.56;75781.00;5066054;28;19920;-78
2021/08/09 11:55:07;;;;;;;;;;;;;;;-142.75;45.25;75853.84;5065411;28;19955;-78
2021/08/09 11:57:39;;;;;;;;;;;;;;;-142.75;45.51;75851.88;5069057;28;19960;-79
2021/08/09 12:00:05;;;;;;;;;;;;;;;-142.75;46.81;75875.47;5074159;28;20319;-77
2021/08/09 12:02:30;;;;;;;;;;;;;;;-142.75;47.04;75861.69;5075773;28;19924;-78
2021/08/09 12:04:55;;;;;;;;;;;;;;;-142.75;47.44;75889.25;5075159;28;19916;-78
2021/08/09 12:07:21;;;;;;;;;;;;;;;-142.75;46.81;75967.97;5076524;28;19923;-78
2021/08/09 12:09:47;;;;;;;;;;;;;;;-142.75;47.60;75975.84;5066358;28;19952;-79
2021/08/09 12:12:14;;;;;;;;;;;;;;;-142.75;48.31;75908.94;5073059;28;19943;-79
2021/08/09 12:14:39;;;;;;;;;;;;;;;-142.75;46.98;75905.00;5060885;28;19924;-78
2021/08/09 12:17:21;;;;;;;;;;;;;;;-142.75;47.61;75873.50;5055327;28;19917;-77
2021/08/09 12:19:47;;;;;;;;;;;;;;;-142.75;47.36;75842.03;5071939;28;19927;-77
2021/08/09 12:22:13;;;;;;;;;;;;;;;-142.75;46.67;75818.41;5055324;28;19999;-78
2021/08/09 12:24:39;;;;;;;;;;;;;;;-142.75;46.59;75838.09;5065723;28;20358;-78
2021/08/09 12:27:21;;;;;;;;;;;;;;;-142.75;45.97;75824.31;5069329;28;19916;-78